Airfield :
LOGIN :

Register | Disclaimer

   EN    FR    IT 

 










Legend :    VFR   Marginal VFR   IFR   Intensive IFR   Very Intensive IFR
Visi :
Ceiling :
>= 8 km
>= 3000ft
5 to 8 km
1000 to 3000 ft
1500m to 5 km
500 to 1000 ft
800 to 1500m
200 to 500 ft
< 800m
< 200 ft
Symbols :   Thunderstorms  Fog  Heavy snow  Heavy precipitations  Wind > 20 kt
SIGMETs :     Misc.  Thunderstorms  Icing  Turbulence  Mountain Waves  Volcanic Ashes






- Airport Elevation : 48 ft
- IATA code : PSR


LIBP - Abruzzo Pescara

CURRENT METAR :
  • 291050Z AUTO 23010KT 9999 FEW069/// BKN100/// 25/11 Q1003

EXPIRED METARs :
  • 291020Z AUTO 25013KT 9999 FEW120/// BKN150/// BKN220/// 25/10 Q1002
  • 290950Z AUTO 24018KT 9999 FEW140/// BKN210/// 26/09 Q1002
  • 290920Z AUTO 23013KT 200V260 9999 SCT120/// 26/11 Q1002
  • 290850Z AUTO 23016KT 9999 FEW130/// 26/11 Q1002
  • 290820Z AUTO 24014KT 9999 NCD 25/11 Q1002

TAF TAF LIBP
Valid from the 29 at 06:00 until the 30 at 06:00 UTC


290500Z 2906/3006 21013KT 9999 FEW100
TEMPO 2914/2918 SHRA
BECMG 2918/2920 VRB05KT



MET'MAP, your aeronautical weather chart ! - Copyright ORBIFLY December 2007 - Disclaimer

ORBIFLY MET'MAP TEAM :

Programming & Development : Alexandra Zaïnal
Original concept : Baudouin d'Aumeries
Technical & hardware support : Manuel Goepfert
Assistance : Marc-Olivier Méhu




SOURCES & CREDITS :

   NOAA